Portada
METAR-TAF:

METAR-TAF

Aeroports :

Base Naval de Rota

Rota, Espanya

latitud: 36-39N, longitud: 006-21W, altitud: 26 m

Observació

L'informe es va fer fa 36 minuts, a les 18:00 UTC
Vent 8 kt del Est/Sud-Est, variant entre Est i Sud-Est
Temperatura 18°C
Humitat 68%
Pressió 1011 hPa
Visibilitat 10 km o més
Núvols disperses a una alçada de 2800 ft
Núvols disperses a una alçada de 4200 ft

METAR: LERT 191800Z 11008KT 080V140 9999 SCT028 SCT042 18/12 Q1011 NOSIG

Hora: 20:36 (18:36 UTC)

Pronòstic

L'informe es va fer fa 1 hora i 36 minuts, a les 17:00 UTC
Pronòstic vàlid del 19 a les 18 UTC al 20 a les 03 UTC
Vent 6 kt del Est/Nord-Est
Visibilitat 10 km o més
Núvols disperses a una alçada de 3000 ft
Probabilitat 30% :
Temporalment
l' 20 a les 02 UTC al 20 a les 03 UTC
Visibilitat: 4000 m
Núvols disperses a una alçada de 3000 ft, Cumulonimbus.
xàfecs de pluja

TAF: LERT 191700Z 1918/2003 07006KT 9999 SCT030 PROB30 TEMPO 2002/2003 4000 SHRA SCT030CB

Observacions i pronòstics meteorològics de més de 4000 aeroports (METAR i TAF).

Les estacions disponibles són els punts grocs i vermells al mapa.

Posi el ratolí al punt desitjat per veure el nom de l'estació.

Feu clic per veure les observacions i els pronòstics meteorològics.

Per canviar el mapa: feu clic els botons verds amb una creu de color negre per apropar; al botó verd amb un guió per allunyar la imatge; o en les fletxes verdes per a mapes adjacents.


METAR-TAF: